createdAt,value
2017-08-02T00:00:15.798Z,21.30
2017-08-02T00:02:42.297Z,21.30
2017-08-02T00:05:08.563Z,21.40
2017-08-02T00:07:35.205Z,21.40
2017-08-02T00:10:01.782Z,21.40
2017-08-02T00:12:27.972Z,21.40
2017-08-02T00:14:54.141Z,21.40
2017-08-02T00:17:20.351Z,21.40
2017-08-02T00:20:01.562Z,21.40
2017-08-02T00:22:27.844Z,21.30
2017-08-02T00:24:54.143Z,21.30
2017-08-02T00:27:20.334Z,21.30
2017-08-02T00:29:48.072Z,21.30
2017-08-02T00:32:15.820Z,21.20
2017-08-02T00:34:42.698Z,21.10
2017-08-02T00:37:11.774Z,21.00
2017-08-02T00:39:39.928Z,20.90
2017-08-02T00:42:06.283Z,20.90
2017-08-02T00:44:32.606Z,20.90
2017-08-02T00:46:58.815Z,20.90
2017-08-02T00:49:25.136Z,21.00
2017-08-02T00:51:51.524Z,21.00
2017-08-02T00:54:18.443Z,21.00
2017-08-02T00:56:46.882Z,20.90
2017-08-02T00:59:13.793Z,20.90
2017-08-02T01:01:40.646Z,21.00
2017-08-02T01:04:06.846Z,21.00
2017-08-02T01:06:33.896Z,21.00
2017-08-02T01:09:00.865Z,20.90
2017-08-02T01:11:27.044Z,20.80
2017-08-02T01:13:54.699Z,20.90
2017-08-02T01:16:36.074Z,20.90
2017-08-02T01:19:02.282Z,20.90
2017-08-02T01:21:28.841Z,20.90
2017-08-02T01:23:56.114Z,20.90
2017-08-02T01:26:22.950Z,20.90
2017-08-02T01:28:49.191Z,21.00
2017-08-02T01:31:15.377Z,20.80
2017-08-02T01:33:41.550Z,20.70
2017-08-02T01:36:07.767Z,20.80
2017-08-02T01:38:34.706Z,20.80
2017-08-02T01:41:01.183Z,20.70
2017-08-02T01:43:28.391Z,20.80
2017-08-02T01:45:54.756Z,20.70
2017-08-02T01:48:20.961Z,20.80
2017-08-02T01:50:47.165Z,20.80
2017-08-02T01:53:14.141Z,20.80
2017-08-02T01:55:40.428Z,20.80
2017-08-02T01:58:07.386Z,20.70
2017-08-02T02:00:34.030Z,20.70
2017-08-02T02:03:01.843Z,20.70
2017-08-02T02:05:28.964Z,20.70
2017-08-02T02:07:58.199Z,20.80
2017-08-02T02:10:24.901Z,20.70
2017-08-02T02:12:52.334Z,20.60
2017-08-02T02:15:19.861Z,20.50
2017-08-02T02:17:46.345Z,20.50
2017-08-02T02:20:13.303Z,20.40
2017-08-02T02:22:40.202Z,20.40
2017-08-02T02:25:07.827Z,20.50
2017-08-02T02:27:35.429Z,20.50
2017-08-02T02:30:02.565Z,20.60
2017-08-02T02:32:28.902Z,20.50
2017-08-02T02:34:55.099Z,20.50
2017-08-02T02:37:21.534Z,20.50
2017-08-02T02:39:47.752Z,20.50
2017-08-02T02:42:14.589Z,20.50
2017-08-02T02:44:41.864Z,20.60
2017-08-02T02:47:10.149Z,20.60
2017-08-02T02:49:36.330Z,20.50
2017-08-02T02:52:02.556Z,20.50
2017-08-02T02:54:29.510Z,20.40
2017-08-02T02:56:56.788Z,20.30
2017-08-02T02:59:24.643Z,20.20
2017-08-02T03:04:23.403Z,20.20
2017-08-02T03:06:50.908Z,20.20
2017-08-02T03:09:17.074Z,20.30
2017-08-02T03:11:43.266Z,20.30
2017-08-02T03:14:13.411Z,20.30
2017-08-02T03:16:39.934Z,20.30
2017-08-02T03:19:07.332Z,20.40
2017-08-02T03:21:33.654Z,20.40
2017-08-02T03:24:00.764Z,20.40
2017-08-02T03:26:27.050Z,20.30
2017-08-02T03:28:53.258Z,20.30
2017-08-02T03:31:20.173Z,20.20
2017-08-02T03:33:46.338Z,20.20
2017-08-02T03:36:12.513Z,20.10
2017-08-02T03:38:38.690Z,20.00
2017-08-02T03:41:04.884Z,20.00
2017-08-02T03:43:31.053Z,20.00
2017-08-02T03:45:58.266Z,20.00
2017-08-02T03:48:24.483Z,19.90
2017-08-02T03:50:50.636Z,20.00
2017-08-02T03:53:16.841Z,20.00
2017-08-02T03:55:42.993Z,20.00
2017-08-02T03:58:09.147Z,19.90
2017-08-02T04:00:35.322Z,20.00
2017-08-02T04:03:01.479Z,19.90
2017-08-02T04:05:28.453Z,19.90
2017-08-02T04:07:55.019Z,19.90
2017-08-02T04:10:21.221Z,19.90
2017-08-02T04:12:47.406Z,19.90
2017-08-02T04:15:13.667Z,19.90
2017-08-02T04:17:39.831Z,19.90
2017-08-02T04:20:06.015Z,19.90
2017-08-02T04:22:32.188Z,19.80
2017-08-02T04:24:58.371Z,19.70
2017-08-02T04:27:24.577Z,19.80
2017-08-02T04:29:51.721Z,19.80
2017-08-02T04:32:17.902Z,19.80
2017-08-02T04:34:45.334Z,19.90
2017-08-02T04:37:12.309Z,19.80
2017-08-02T04:39:39.237Z,19.80
2017-08-02T04:42:05.446Z,19.80
2017-08-02T04:44:31.626Z,19.80
2017-08-02T04:46:58.601Z,19.80
2017-08-02T04:49:26.376Z,19.90
2017-08-02T04:51:52.583Z,19.90
2017-08-02T04:54:18.763Z,19.90
2017-08-02T04:56:44.966Z,19.90
2017-08-02T04:59:11.146Z,19.90
2017-08-02T05:01:37.714Z,20.00
2017-08-02T05:04:03.889Z,20.00
2017-08-02T05:06:30.114Z,20.10
2017-08-02T05:08:56.282Z,20.20
2017-08-02T05:11:22.434Z,20.20
2017-08-02T05:13:49.403Z,20.30
2017-08-02T05:16:15.571Z,20.20
2017-08-02T05:18:41.761Z,20.30
2017-08-02T05:21:07.940Z,20.30
2017-08-02T05:23:34.139Z,20.30
2017-08-02T05:26:01.101Z,20.40
2017-08-02T05:28:28.065Z,20.50
2017-08-02T05:30:54.286Z,20.60
2017-08-02T05:33:21.237Z,20.70
2017-08-02T05:35:47.456Z,20.80
2017-08-02T05:38:14.796Z,21.00
2017-08-02T05:40:41.738Z,21.30
2017-08-02T05:43:08.832Z,21.60
2017-08-02T05:45:35.023Z,21.90
2017-08-02T05:48:01.974Z,22.40
2017-08-02T05:50:28.904Z,22.60
2017-08-02T05:52:55.837Z,22.70
2017-08-02T05:55:22.034Z,22.80
2017-08-02T05:57:48.226Z,21.90
2017-08-02T06:00:15.166Z,22.50
2017-08-02T06:02:42.111Z,22.20
2017-08-02T06:05:09.179Z,22.10
2017-08-02T06:07:35.404Z,22.00
2017-08-02T06:10:01.673Z,21.90
2017-08-02T06:12:27.915Z,22.00
2017-08-02T06:14:54.101Z,21.80
2017-08-02T06:17:20.355Z,21.80
2017-08-02T06:19:46.579Z,21.80
2017-08-02T06:22:12.819Z,21.80
2017-08-02T06:24:39.053Z,22.10
2017-08-02T06:27:05.234Z,22.50
2017-08-02T06:29:31.427Z,22.60
2017-08-02T06:31:57.599Z,23.30
2017-08-02T06:34:23.780Z,23.50
2017-08-02T06:36:50.757Z,24.20
2017-08-02T06:39:16.915Z,24.40
2017-08-02T06:41:43.104Z,24.80
2017-08-02T06:44:10.113Z,25.10
2017-08-02T06:46:36.335Z,25.20
2017-08-02T06:49:02.543Z,25.50
2017-08-02T06:51:28.762Z,25.60
2017-08-02T06:53:54.914Z,25.90
2017-08-02T06:56:21.113Z,26.20
2017-08-02T06:58:48.431Z,26.20
2017-08-02T07:01:16.356Z,26.50
2017-08-02T07:03:42.597Z,26.50
2017-08-02T07:06:09.569Z,26.70
2017-08-02T07:08:35.786Z,26.90
2017-08-02T07:11:02.874Z,27.30
2017-08-02T07:13:29.422Z,27.40
2017-08-02T07:15:55.745Z,27.70
2017-08-02T07:18:21.916Z,28.00
2017-08-02T07:20:48.083Z,28.00
2017-08-02T07:23:15.034Z,28.30
2017-08-02T07:25:41.615Z,28.60
2017-08-02T07:28:07.798Z,28.10
2017-08-02T07:30:34.171Z,27.70
2017-08-02T07:33:01.116Z,27.20
2017-08-02T07:35:27.345Z,27.50
2017-08-02T07:37:53.532Z,27.60
2017-08-02T07:40:20.522Z,27.80
2017-08-02T07:42:46.745Z,28.60
2017-08-02T07:45:12.892Z,29.20
2017-08-02T07:47:39.097Z,29.60
2017-08-02T07:50:05.283Z,29.90
2017-08-02T07:52:31.475Z,30.10
2017-08-02T07:54:57.660Z,30.30
2017-08-02T07:57:24.637Z,30.10
2017-08-02T07:59:50.851Z,30.40
2017-08-02T08:02:17.055Z,30.60
2017-08-02T08:04:43.458Z,30.60
2017-08-02T08:07:09.657Z,30.90
2017-08-02T08:09:35.886Z,30.90
2017-08-02T08:12:02.096Z,31.10
2017-08-02T08:14:28.306Z,30.30
2017-08-02T08:16:55.303Z,29.60
2017-08-02T08:29:11.622Z,30.00
2017-08-02T08:31:39.373Z,29.80
2017-08-02T08:34:06.306Z,29.60
2017-08-02T08:36:32.574Z,29.40
2017-08-02T08:38:59.462Z,29.20
2017-08-02T08:41:25.650Z,29.00
2017-08-02T08:43:51.826Z,29.00
2017-08-02T08:46:18.043Z,29.10
2017-08-02T08:48:44.610Z,29.30
2017-08-02T08:51:11.594Z,29.40
2017-08-02T08:53:37.770Z,29.40
2017-08-02T08:56:03.951Z,29.60
2017-08-02T08:58:30.149Z,29.80
2017-08-02T09:00:57.080Z,30.00
2017-08-02T09:03:24.008Z,29.90
2017-08-02T09:05:50.166Z,29.80
2017-08-02T09:08:17.101Z,29.90
2017-08-02T09:10:43.236Z,29.90
2017-08-02T09:13:10.732Z,29.90
2017-08-02T09:15:37.043Z,30.00
2017-08-02T09:18:03.271Z,30.00
2017-08-02T09:20:30.265Z,30.20
2017-08-02T09:22:56.499Z,30.20
2017-08-02T09:25:22.699Z,30.30
2017-08-02T09:27:48.873Z,30.30
2017-08-02T09:30:15.055Z,30.30
2017-08-02T09:32:41.298Z,30.20
2017-08-02T09:35:07.567Z,30.10
2017-08-02T09:37:33.711Z,29.90
2017-08-02T09:40:00.628Z,29.90
2017-08-02T09:42:26.861Z,30.00
2017-08-02T09:44:53.051Z,30.00
2017-08-02T09:47:19.263Z,29.70
2017-08-02T09:49:45.476Z,29.60
2017-08-02T09:52:12.455Z,29.60
2017-08-02T09:54:38.736Z,29.50
2017-08-02T09:57:05.662Z,29.90
2017-08-02T09:59:31.858Z,29.90
2017-08-02T10:01:58.085Z,29.80
2017-08-02T10:04:24.303Z,29.90
2017-08-02T10:06:50.495Z,29.90
2017-08-02T10:09:16.684Z,30.30
2017-08-02T10:11:42.875Z,30.60
2017-08-02T10:14:09.038Z,30.60
2017-08-02T10:16:35.277Z,30.30
2017-08-02T10:19:01.523Z,30.30
2017-08-02T10:21:27.711Z,30.40
2017-08-02T10:23:54.760Z,30.80
2017-08-02T10:26:20.928Z,30.50
2017-08-02T10:28:47.140Z,30.40
2017-08-02T10:31:13.338Z,29.60
2017-08-02T10:33:40.427Z,29.60
2017-08-02T10:36:06.996Z,29.30
2017-08-02T10:38:33.970Z,29.30
2017-08-02T10:41:00.191Z,29.40
2017-08-02T10:43:28.094Z,29.20
2017-08-02T10:45:54.320Z,29.20
2017-08-02T10:48:22.518Z,29.50
2017-08-02T10:50:48.816Z,29.60
2017-08-02T10:53:15.047Z,29.90
2017-08-02T10:55:41.701Z,30.00
2017-08-02T10:58:08.128Z,30.00
2017-08-02T11:00:34.614Z,30.00
2017-08-02T11:03:01.525Z,29.90
2017-08-02T11:05:29.353Z,29.80
2017-08-02T11:07:55.543Z,29.80
2017-08-02T11:10:21.711Z,29.90
2017-08-02T11:12:47.985Z,29.80
2017-08-02T11:15:14.142Z,29.90
2017-08-02T11:17:40.401Z,30.10
2017-08-02T11:20:06.599Z,30.20
2017-08-02T11:22:33.532Z,30.10
2017-08-02T11:25:00.503Z,29.90
2017-08-02T11:27:26.696Z,29.90
2017-08-02T11:29:53.249Z,30.10
2017-08-02T11:32:20.217Z,30.70
2017-08-02T11:34:46.459Z,30.80
2017-08-02T11:37:12.683Z,30.70
2017-08-02T11:39:38.862Z,30.60
2017-08-02T11:42:05.064Z,30.30
2017-08-02T11:44:31.276Z,30.10
2017-08-02T11:46:58.227Z,29.90
2017-08-02T11:49:24.424Z,29.90
2017-08-02T11:51:50.603Z,29.70
2017-08-02T11:54:16.824Z,29.60
2017-08-02T11:56:43.013Z,29.50
2017-08-02T11:59:09.391Z,29.50
2017-08-02T12:01:35.612Z,29.40
2017-08-02T12:04:02.836Z,29.30
2017-08-02T12:06:29.189Z,29.40
2017-08-02T12:08:55.366Z,29.80
2017-08-02T12:11:22.379Z,30.30
2017-08-02T12:13:48.590Z,30.40
2017-08-02T12:16:14.806Z,30.40
2017-08-02T12:18:40.986Z,30.20
2017-08-02T12:21:07.349Z,30.20
2017-08-02T12:23:37.094Z,30.00
2017-08-02T12:26:03.315Z,29.90
2017-08-02T12:28:29.559Z,29.70
2017-08-02T12:30:55.816Z,29.70
2017-08-02T12:33:22.100Z,29.60
2017-08-02T12:35:48.315Z,29.40
2017-08-02T12:38:14.491Z,29.40
2017-08-02T12:40:41.651Z,29.60
2017-08-02T12:43:07.835Z,29.70
2017-08-02T12:45:35.130Z,29.80
2017-08-02T12:48:01.318Z,30.20
2017-08-02T12:50:27.869Z,30.20
2017-08-02T12:52:54.050Z,30.10
2017-08-02T12:55:21.195Z,29.60
2017-08-02T12:57:48.127Z,29.30
2017-08-02T13:00:14.336Z,29.10
2017-08-02T13:02:40.624Z,28.80
2017-08-02T13:05:07.052Z,28.80
2017-08-02T13:07:33.255Z,28.70
2017-08-02T13:10:00.262Z,28.80
2017-08-02T13:12:26.469Z,28.80
2017-08-02T13:14:52.669Z,28.90
2017-08-02T13:17:18.933Z,29.40
2017-08-02T13:19:45.108Z,29.80
2017-08-02T13:22:11.306Z,30.80
2017-08-02T13:24:37.559Z,31.60
2017-08-02T13:27:03.753Z,31.60
2017-08-02T13:29:29.980Z,31.80
2017-08-02T13:31:56.308Z,31.80
2017-08-02T13:34:22.463Z,31.70
2017-08-02T13:36:48.687Z,31.80
2017-08-02T13:39:14.892Z,32.10
2017-08-02T13:41:41.081Z,32.50
2017-08-02T13:44:08.040Z,32.40
2017-08-02T13:46:34.253Z,32.30
2017-08-02T13:49:00.758Z,32.30
2017-08-02T13:51:26.986Z,31.90
2017-08-02T13:53:53.162Z,31.20
2017-08-02T13:56:19.344Z,31.40
2017-08-02T13:58:45.565Z,31.40
2017-08-02T14:01:11.739Z,31.60
2017-08-02T14:03:39.203Z,32.50
2017-08-02T14:06:05.394Z,32.10
2017-08-02T14:08:31.586Z,32.20
2017-08-02T14:10:57.808Z,31.40
2017-08-02T14:13:23.966Z,31.40
2017-08-02T14:15:50.152Z,31.20
2017-08-02T14:18:16.344Z,30.50
2017-08-02T14:20:43.292Z,30.20
2017-08-02T14:23:09.499Z,30.00
2017-08-02T14:25:35.720Z,29.90
2017-08-02T14:28:01.919Z,29.50
2017-08-02T14:30:28.099Z,29.30
2017-08-02T14:32:54.311Z,29.10
2017-08-02T14:35:20.533Z,29.20
2017-08-02T14:37:46.754Z,29.20
2017-08-02T14:40:13.333Z,29.10
2017-08-02T14:42:40.238Z,29.00
2017-08-02T14:45:06.402Z,28.90
2017-08-02T14:47:32.974Z,28.80
2017-08-02T14:49:59.196Z,28.80
2017-08-02T14:52:25.388Z,28.80
2017-08-02T14:54:51.554Z,29.10
2017-08-02T14:57:17.811Z,28.70
2017-08-02T14:59:44.019Z,28.70
2017-08-02T15:02:10.237Z,28.70
2017-08-02T15:04:36.403Z,28.60
2017-08-02T15:07:02.595Z,28.60
2017-08-02T15:09:28.734Z,28.60
2017-08-02T15:11:54.946Z,28.50
2017-08-02T15:14:21.161Z,28.40
2017-08-02T15:16:47.346Z,28.30
2017-08-02T15:19:13.888Z,28.30
2017-08-02T15:21:40.097Z,28.20
2017-08-02T15:24:06.263Z,28.10
2017-08-02T15:26:32.453Z,28.10
2017-08-02T15:28:58.661Z,28.10
2017-08-02T15:31:25.664Z,28.10
2017-08-02T15:33:52.581Z,28.00
2017-08-02T15:36:18.867Z,27.90
2017-08-02T15:41:12.979Z,27.90
2017-08-02T15:43:39.929Z,27.90
2017-08-02T15:46:06.900Z,28.00
2017-08-02T15:48:33.217Z,27.90
2017-08-02T15:51:00.202Z,27.90
2017-08-02T15:53:26.476Z,27.80
2017-08-02T15:55:52.677Z,27.70
2017-08-02T15:58:19.602Z,27.80
2017-08-02T16:00:45.811Z,27.70
2017-08-02T16:03:12.003Z,27.60
2017-08-02T16:05:38.238Z,27.60
2017-08-02T16:08:04.433Z,27.60
2017-08-02T16:10:30.642Z,27.60
2017-08-02T16:12:56.931Z,27.50
2017-08-02T16:15:23.211Z,27.60
2017-08-02T16:17:49.446Z,27.50
2017-08-02T16:20:15.623Z,27.50
2017-08-02T16:22:41.799Z,27.50
2017-08-02T16:25:08.080Z,27.60
2017-08-02T16:27:34.341Z,27.50
2017-08-02T16:30:00.584Z,29.40
2017-08-02T16:32:26.824Z,27.40
2017-08-02T16:34:53.065Z,27.40
2017-08-02T16:37:20.019Z,27.30
2017-08-02T16:39:46.967Z,27.30
2017-08-02T16:42:13.841Z,27.30
2017-08-02T16:44:40.007Z,27.20
2017-08-02T16:47:06.183Z,27.20
2017-08-02T16:49:32.385Z,27.20
2017-08-02T16:51:59.324Z,27.20
2017-08-02T16:54:26.267Z,27.20
2017-08-02T16:56:52.440Z,27.10
2017-08-02T16:59:19.010Z,27.10
2017-08-02T17:01:45.195Z,27.10
2017-08-02T17:04:11.332Z,27.10
2017-08-02T17:06:37.495Z,27.10
2017-08-02T17:09:03.736Z,27.00
2017-08-02T17:11:29.960Z,27.00
2017-08-02T17:13:56.138Z,26.90
2017-08-02T17:16:23.104Z,26.90
2017-08-02T17:18:49.678Z,26.90
2017-08-02T17:21:16.008Z,26.90
2017-08-02T17:23:42.199Z,26.90
2017-08-02T17:26:08.817Z,26.90
2017-08-02T17:28:34.970Z,26.80
2017-08-02T17:31:01.565Z,26.80
2017-08-02T17:33:28.570Z,26.80
2017-08-02T17:35:54.817Z,26.70
2017-08-02T17:38:21.758Z,26.70
2017-08-02T17:41:03.144Z,26.60
2017-08-02T17:43:29.597Z,26.60
2017-08-02T17:45:56.166Z,26.60
2017-08-02T17:48:22.806Z,26.50
2017-08-02T17:50:49.034Z,26.50
2017-08-02T17:53:15.256Z,26.50
2017-08-02T17:55:41.429Z,26.30
2017-08-02T17:58:07.617Z,26.40
2017-08-02T18:00:33.850Z,26.30
2017-08-02T18:03:00.043Z,26.30
2017-08-02T18:05:27.031Z,26.20
2017-08-02T18:07:53.210Z,26.30
2017-08-02T18:10:19.442Z,26.20
2017-08-02T18:12:46.429Z,26.20
2017-08-02T18:15:12.657Z,26.20
2017-08-02T18:17:38.876Z,26.10
2017-08-02T18:20:05.080Z,26.10
2017-08-02T18:22:32.028Z,26.00
2017-08-02T18:24:58.937Z,26.00
2017-08-02T18:27:25.151Z,25.90
2017-08-02T18:29:51.379Z,25.90
2017-08-02T18:32:17.563Z,25.80
2017-08-02T18:34:45.322Z,25.80
2017-08-02T18:37:20.659Z,25.80
2017-08-02T18:39:46.894Z,25.80
2017-08-02T18:42:14.204Z,25.80
2017-08-02T18:44:40.405Z,25.70
2017-08-02T18:47:06.650Z,25.70
2017-08-02T18:49:32.874Z,25.70
2017-08-02T18:51:59.704Z,25.70
2017-08-02T18:54:27.812Z,25.70
2017-08-02T18:56:54.394Z,25.60
2017-08-02T18:59:20.978Z,25.60
2017-08-02T19:01:47.454Z,25.50
2017-08-02T19:04:15.073Z,25.50
2017-08-02T19:06:41.278Z,25.40
2017-08-02T19:09:07.464Z,25.40
2017-08-02T19:11:35.235Z,25.40
2017-08-02T19:14:01.463Z,25.30
2017-08-02T19:16:28.089Z,25.30
2017-08-02T19:18:55.531Z,25.30
2017-08-02T19:21:21.913Z,25.30
2017-08-02T19:23:49.030Z,25.20
2017-08-02T19:26:16.230Z,25.20
2017-08-02T19:28:42.564Z,25.10
2017-08-02T19:31:09.088Z,25.10
2017-08-02T19:33:36.458Z,25.10
2017-08-02T19:36:02.813Z,25.00
2017-08-02T19:38:29.232Z,25.00
2017-08-02T19:40:57.067Z,25.00
2017-08-02T19:43:24.565Z,24.90
2017-08-02T19:45:51.105Z,25.00
2017-08-02T19:48:17.448Z,25.00
2017-08-02T19:50:45.336Z,25.00
2017-08-02T19:53:12.501Z,25.00
2017-08-02T19:55:39.768Z,25.00
2017-08-02T19:58:06.010Z,25.00
2017-08-02T20:00:32.267Z,25.00
2017-08-02T20:02:59.583Z,25.00
2017-08-02T20:05:26.422Z,25.00
2017-08-02T20:07:53.632Z,25.00
2017-08-02T20:10:20.221Z,24.90
2017-08-02T20:12:46.444Z,24.90
2017-08-02T20:15:14.007Z,24.90
2017-08-02T20:17:40.206Z,24.90
2017-08-02T20:20:07.187Z,24.90
2017-08-02T20:22:33.402Z,24.90
2017-08-02T20:24:59.725Z,24.90
2017-08-02T20:27:26.889Z,24.90
2017-08-02T20:29:53.172Z,24.80
2017-08-02T20:32:19.551Z,24.80
2017-08-02T20:34:45.867Z,24.80
2017-08-02T20:37:13.085Z,24.70
2017-08-02T20:39:40.703Z,24.60
2017-08-02T20:42:09.162Z,24.50
2017-08-02T20:44:35.977Z,24.50
2017-08-02T20:47:04.763Z,24.50
2017-08-02T20:49:32.341Z,24.40
2017-08-02T20:51:59.602Z,24.30
2017-08-02T20:54:25.814Z,24.30
2017-08-02T20:56:52.248Z,24.30
2017-08-02T20:59:20.591Z,24.20
2017-08-02T21:01:47.133Z,24.20
2017-08-02T21:04:13.609Z,24.20
2017-08-02T21:06:40.692Z,24.20
2017-08-02T21:09:08.831Z,24.10
2017-08-02T21:11:36.206Z,24.10
2017-08-02T21:14:03.158Z,23.90
2017-08-02T21:16:30.088Z,23.80
2017-08-02T21:18:57.695Z,23.80
2017-08-02T21:21:25.685Z,23.70
2017-08-02T21:23:53.036Z,23.70
2017-08-02T21:26:20.655Z,23.70
2017-08-02T21:28:47.234Z,23.60
2017-08-02T21:40:58.509Z,23.50
2017-08-02T21:43:25.795Z,23.50
2017-08-02T21:45:52.015Z,23.40
2017-08-02T21:48:18.996Z,23.40
2017-08-02T21:50:45.195Z,23.40
2017-08-02T21:53:11.904Z,23.40
2017-08-02T21:55:38.183Z,23.40
2017-08-02T21:58:04.567Z,23.30
2017-08-02T22:00:31.068Z,23.30
2017-08-02T22:02:57.339Z,23.20
2017-08-02T22:05:23.498Z,23.20
2017-08-02T22:07:49.982Z,23.20
2017-08-02T22:10:16.592Z,23.20
2017-08-02T22:12:42.829Z,23.30
2017-08-02T22:15:09.009Z,23.30
2017-08-02T22:17:36.313Z,23.30
2017-08-02T22:20:04.538Z,23.30
2017-08-02T22:22:31.490Z,23.30
2017-08-02T22:24:59.155Z,23.20
2017-08-02T22:27:40.998Z,23.20
2017-08-02T22:30:07.183Z,23.10
2017-08-02T22:32:33.718Z,23.10
2017-08-02T22:35:00.712Z,23.00
2017-08-02T22:37:26.875Z,23.00
2017-08-02T22:39:53.445Z,23.00
2017-08-02T22:42:20.123Z,22.90
2017-08-02T22:44:46.359Z,22.90
2017-08-02T22:47:12.608Z,22.90
2017-08-02T22:49:38.912Z,22.90
2017-08-02T22:52:05.123Z,22.90
2017-08-02T22:54:31.299Z,23.00
2017-08-02T22:56:58.529Z,22.80
2017-08-02T22:59:24.773Z,22.80
2017-08-02T23:01:50.995Z,22.70
2017-08-02T23:04:17.177Z,22.80
2017-08-02T23:06:43.872Z,22.80
2017-08-02T23:09:10.106Z,22.80
2017-08-02T23:11:38.952Z,22.80
2017-08-02T23:14:06.084Z,22.80
2017-08-02T23:16:32.541Z,22.80
2017-08-02T23:18:58.746Z,22.80
2017-08-02T23:21:24.974Z,22.80
2017-08-02T23:23:51.250Z,22.80
2017-08-02T23:26:17.454Z,22.80
2017-08-02T23:28:43.660Z,22.70
2017-08-02T23:31:09.879Z,22.80
2017-08-02T23:33:36.144Z,22.70
2017-08-02T23:36:02.703Z,22.70
2017-08-02T23:38:28.928Z,22.70
2017-08-02T23:40:55.164Z,22.60
2017-08-02T23:43:21.471Z,22.50
2017-08-02T23:45:47.605Z,22.60
2017-08-02T23:48:13.815Z,22.60
2017-08-02T23:50:40.048Z,22.60
2017-08-02T23:53:06.217Z,22.60
2017-08-02T23:55:32.411Z,22.60
2017-08-02T23:57:58.619Z,22.60
